Terminal Aerodrome Forecast
Issued by NWS

Home | Current Version | Previous Version | Text Only | Print | Product List | Glossary On
Versions: 1 2 3 4 5 6 7 8 9 10 11 12 13 14 15
000
FTUS42 KMLB 190500
TAFFPR
TAF
KFPR 190521Z 1906/2006 00000KT P6SM FEW027
     FM191300 06006KT P6SM VCSH SCT025 BKN050 BKN100
     FM191600 08008KT P6SM -SHRA SCT030 BKN040 OVC080
     FM200000 03005KT P6SM -SHRA BKN030=

USA.gov is the U.S. government's official web portal to all federal, state and local government web resources and services.